Annapolis, Maryland
Current Conditions -  °F | °C
As of 12:54 PM on Saturday 25 Oct 2014 (Local Time) from KNAK Reporting Station
Clear Clear  
Wind Chill: 67°   Ceiling: Unl
Heat Index: 67°   Visibility: 10mi
Dew Point: 41°   Wind: 7mph
Humidity: 39%   Direction: NA
Pressure: 29.87"   Gusts: NA
Location:  38.98°N, 76.49°W
Report Text: KNAK 251654Z AUTO VRB06KT 10SM CLR 19/05 A2987 RMK AO2 SLP117 T01940050
Loading
Personal Weather Stations






























Interactive Weather Map
Tropical Storm Tracking
New forecast layout! Learn more

10-Day Weather Forecast

Advertisements
Track Severe Weather on mobile